Flight Track Log - Related Links

Times and Time Zones

All times are in EDT time to prevent confusion due to time zone crossing. See the N66AT flight status page for this flight to view local times or setup timezone preferences in your user account.

Time Position Orientation Groundspeed Altitude Reporting Facility
EDT Latitude Longitude Course Direction KTS MPH feet Rate Location/Type
Fri 03:39:51 PM 40.9864 -81.5678 301° West 129 148 3,800  Level Cleveland Center
Fri 03:41:04 PM 40.9361 -81.5864 196° South 148 170 5,100 1,030 Climbing Cleveland Center
Fri 03:42:05 PM 40.8964 -81.5939 188° South 143 165 6,100 397 Climbing Cleveland Center
Fri 03:43:05 PM 40.8567 -81.6125 200° South 168 193 5,900 -47 Descending Cleveland Center
Fri 03:44:00 PM 41.1708 -81.7582 304° West  Level FlightAware Approximate
Fri 03:44:12 PM 40.8108 -81.6311 197° South 141 162 6,000  Level Cleveland Center
Fri 03:45:00 PM 41.1940 -81.8067 301° West  Level FlightAware Approximate
Fri 03:45:07 PM 40.7772 -81.6469 200° South 144 166 5,800  Level Cleveland Center
Fri 03:46:14 PM 40.7375 -81.6628 197° South 142 163 5,900 141 Climbing Cleveland Center
Fri 03:47:15 PM 40.7039 -81.6869 209° Southwest 136 157 6,100 52 Climbing Cleveland Center
Fri 03:48:10 PM 40.6825 -81.7247 233° Southwest 151 174 6,000 104 Descending Cleveland Center
Fri 03:49:10 PM 40.6553 -81.7600 225° Southwest 155 178 6,300  Climbing Cleveland Center
Fri 03:50:05 PM 40.6319 -81.7950 229° Southwest 131 151 6,000 -164 Descending Cleveland Center
Fri 03:51:00 PM 40.6086 -81.8167 215° Southwest 106 122 6,000  Level Cleveland Center
Fri 03:52:07 PM 40.6167 -81.8633 283° West 116 133 6,000 -47 Level Cleveland Center
Fri 03:53:07 PM 40.6392 -81.8964 312° West 133 153 5,900 50 Descending Cleveland Center
Fri 03:54:08 PM 40.6678 -81.9381 312° West 143 165 6,100 21 Climbing Cleveland Center
Fri 03:56:00 PM 40.7091 -82.0468 297° West  Level FlightAware Approximate
Fri 04:03:00 PM 40.8850 -82.4403 301° West  Level FlightAware Approximate
Fri 04:04:00 PM 40.9102 -82.4966 301° West  Level FlightAware Approximate
Fri 04:05:00 PM 40.9353 -82.5528 301° West  Level FlightAware Approximate
Fri 04:06:00 PM 40.9604 -82.6092 301° West  Level FlightAware Approximate
Fri 04:07:00 PM 40.9855 -82.6655 301° West  Level FlightAware Approximate
Fri 04:08:00 PM 41.0105 -82.7219 300° West  Level FlightAware Approximate
Fri 04:09:00 PM 41.0355 -82.7784 300° West  Level FlightAware Approximate
Fri 04:10:00 PM 41.0606 -82.8349 300° West  Level FlightAware Approximate
Fri 04:11:00 PM 41.0855 -82.8914 300° West  Level FlightAware Approximate
Fri 04:12:00 PM 41.1105 -82.9480 300° West  Level FlightAware Approximate
Fri 04:13:00 PM 41.1354 -83.0046 301° West  Level FlightAware Approximate
Fri 04:14:00 PM 41.1607 -83.0609 301° West  Level FlightAware Approximate
Fri 04:15:00 PM 41.1860 -83.1173 301° West  Level FlightAware Approximate
Fri 04:16:00 PM 41.2112 -83.1738 301° West  Level FlightAware Approximate
Fri 04:17:00 PM 41.2364 -83.2302 301° West  Level FlightAware Approximate
Fri 04:18:00 PM 41.2616 -83.2868 301° West  Level FlightAware Approximate
Fri 04:19:00 PM 41.2868 -83.3433 301° West  Level FlightAware Approximate
Fri 04:20:00 PM 41.3119 -83.3999 301° West  Level FlightAware Approximate
Fri 04:21:00 PM 41.3370 -83.4566 301° West  Level FlightAware Approximate
Fri 04:22:00 PM 41.3621 -83.5133 301° West  Level FlightAware Approximate
Fri 04:23:00 PM 41.3871 -83.5700 300° West  Level FlightAware Approximate
Fri 04:24:00 PM 41.4122 -83.6268 300° West  Level FlightAware Approximate
Fri 04:25:00 PM 41.4371 -83.6836 300° West  Level FlightAware Approximate
Fri 04:26:00 PM 41.4621 -83.7405 300° West  Level FlightAware Approximate
Fri 04:27:00 PM 41.4870 -83.7974 300° West  Level FlightAware Approximate
Fri 04:28:00 PM 41.5120 -83.8543 300° West  Level FlightAware Approximate
Fri 04:29:00 PM 41.5368 -83.9113 300° West  Level FlightAware Approximate
Fri 04:30:00 PM 41.5617 -83.9684 300° West  Level FlightAware Approximate
Fri 04:31:00 PM 41.5865 -84.0255 300° West  Level FlightAware Approximate
Fri 04:32:00 PM 41.6113 -84.0826 300° West  Level FlightAware Approximate
Fri 04:33:00 PM 41.6361 -84.1397 300° West  Level FlightAware Approximate
Fri 04:34:00 PM 41.6608 -84.1970 300° West  Level FlightAware Approximate
Fri 04:35:00 PM 41.6855 -84.2542 300° West  Level FlightAware Approximate
Fri 04:36:00 PM 41.7102 -84.3115 300° West  Level FlightAware Approximate
Fri 04:36:54 PM 41.4661 -84.1022 295° West 157 181 6,800  Level Chicago Center
Fri 04:37:00 PM 41.7349 -84.3689 300° West  Level FlightAware Approximate
Fri 04:37:57 PM 41.4961 -84.1425 315° West 137 158 7,400  Level Chicago Center
Fri 04:38:00 PM 41.7595 -84.4263 300° West  Level FlightAware Approximate
Fri 04:38:59 PM 41.5181 -84.1861 304° West 139 160 7,800  Level Chicago Center
Fri 04:39:00 PM 41.7841 -84.4837 300° West  Level FlightAware Approximate
Fri 04:40:00 PM 41.8086 -84.5412 300° West  Level FlightAware Approximate
Fri 04:40:01 PM 41.5378 -84.2311 300° West 140 161 8,100  Level Chicago Center
Fri 04:41:00 PM 41.8332 -84.5987 300° West  Level FlightAware Approximate
Fri 04:41:03 PM 41.5644 -84.2789 307° West 148 170 8,100  Level Chicago Center
Fri 04:42:00 PM 41.8542 -84.6591 295° West  Level Estimated
Fri 04:42:05 PM 41.5806 -84.3361 291° West 159 183 8,100  Level Chicago Center
Fri 04:43:07 PM 41.6011 -84.3894 297° West 161 185 8,100  Level Chicago Center
Fri 04:44:09 PM 41.6356 -84.4503 307° West 165 190 8,100 48 Level Chicago Center
Fri 04:45:11 PM 41.6667 -84.4975 311° West 169 194 8,200 48 Climbing Chicago Center
Fri 04:46:13 PM 41.7056 -84.5361 323° Northwest 173 199 8,200 48 Level Chicago Center
Fri 04:47:15 PM 41.7367 -84.5844 311° West 177 204 8,300 48 Climbing Chicago Center
Fri 04:48:17 PM 41.7578 -84.6383 298° West 168 193 8,300 -96 Level Chicago Center
Fri 04:49:20 PM 41.7836 -84.6928 302° West 171 197 8,100 -96 Descending Chicago Center
Fri 04:50:22 PM 41.8239 -84.7519 312° West 179 206 8,100  Level Chicago Center
Fri 04:51:24 PM 41.8561 -84.7997 312° West 176 203 8,100  Level Chicago Center
Fri 04:52:26 PM 41.8808 -84.8508 303° West 169 194 8,100  Level Chicago Center
Fri 04:53:28 PM 41.9169 -84.8914 320° Northwest 180 207 8,100  Level Chicago Center
Fri 04:54:30 PM 41.9664 -84.9083 346° North 186 214 8,100 48 Level Chicago Center
Fri 04:55:32 PM 42.0239 -84.9386 339° North 185 213 8,200 48 Climbing Chicago Center
Fri 04:56:34 PM 42.0431 -84.9942 295° West 174 200 8,200 -48 Level Chicago Center
Fri 04:57:36 PM 42.0689 -85.0444 305° West 167 192 8,100 -48 Descending Chicago Center
Fri 04:58:38 PM 42.0922 -85.0964 301° West 164 189 8,100  Level Chicago Center
Fri 04:59:41 PM 42.1036 -85.1564 284° West 165 190 8,100  Level Chicago Center
Fri 05:00:43 PM 42.1061 -85.2289 273° West 163 188 8,100  Level Chicago Center
Fri 05:01:45 PM 42.1272 -85.2856 297° West 173 199 8,100  Level Chicago Center
Fri 05:02:47 PM 42.1622 -85.3317 316° Northwest 177 204 8,100  Level Chicago Center
Fri 05:03:49 PM 42.1897 -85.3831 306° West 174 200 8,100  Level Chicago Center
Fri 05:04:51 PM 42.1994 -85.4433 282° West 167 192 8,100  Level Chicago Center
Fri 05:05:53 PM 42.2233 -85.5117 295° West 170 196 8,100 48 Level Chicago Center
Fri 05:06:55 PM 42.2450 -85.5683 297° West 170 196 8,200  Climbing Chicago Center
Fri 05:07:57 PM 42.2608 -85.6281 290° West 170 196 8,100 -48 Descending Chicago Center
Fri 05:08:59 PM 42.2733 -85.6906 285° West 171 197 8,100  Level Chicago Center
Fri 05:10:01 PM 42.2978 -85.7533 298° West 173 199 8,100  Level Chicago Center
Fri 05:11:03 PM 42.3131 -85.8136 289° West 170 196 8,100 -48 Level Chicago Center
Fri 05:12:06 PM 42.3297 -85.8733 291° West 171 197 8,000  Descending Chicago Center
Fri 05:13:08 PM 42.3631 -85.9214 313° West 174 200 8,100 48 Climbing Chicago Center
Fri 05:14:10 PM 42.3800 -85.9803 291° West 167 192 8,100 -48 Level Chicago Center
Fri 05:15:12 PM 42.3978 -86.0531 288° West 170 196 8,000 -48 Descending Chicago Center
Fri 05:16:14 PM 42.4050 -86.1167 279° West 169 194 8,000  Level Chicago Center
Fri 05:17:16 PM 42.4219 -86.1769 291° West 172 198 8,000  Level Chicago Center
Fri 05:18:18 PM 42.4617 -86.2164 324° Northwest 175 201 8,000 48 Level Chicago Center
Fri 05:19:20 PM 42.4961 -86.2594 317° Northwest 170 196 8,100  Climbing Chicago Center
Fri 05:20:22 PM 42.5194 -86.3164 299° West 171 197 8,000  Descending Chicago Center
Fri 05:21:24 PM 42.5653 -86.3658 322° Northwest 176 203 8,100  Climbing Chicago Center
Fri 05:22:26 PM 42.6022 -86.4119 317° Northwest 179 206 8,000  Descending Chicago Center
Fri 05:23:29 PM 42.6361 -86.4600 314° West 177 204 8,100  Climbing Chicago Center
Fri 05:24:31 PM 42.6589 -86.5169 299° West 176 203 8,000  Descending Chicago Center
Fri 05:25:33 PM 42.6756 -86.5786 290° West 177 204 8,100 48 Climbing Chicago Center
Fri 05:26:35 PM 42.6997 -86.6358 300° West 175 201 8,100 -48 Level Chicago Center
Fri 05:27:37 PM 42.7292 -86.6906 306° West 178 205 8,000 48 Descending Chicago Center
Fri 05:28:39 PM 42.7644 -86.7581 305° West 182 209 8,200  Climbing Chicago Center
Fri 05:29:41 PM 42.7919 -86.8147 303° West 181 208 8,000 -97 Descending Chicago Center
Fri 05:30:43 PM 42.8233 -86.8689 308° West 182 209 8,000  Level Chicago Center
Fri 05:31:45 PM 42.8494 -86.9272 301° West 181 208 8,000 -48 Level Chicago Center
Fri 05:32:47 PM 42.8739 -86.9886 299° West 183 211 7,900 -48 Descending Chicago Center
Fri 05:33:49 PM 42.9011 -87.0464 303° West 182 209 7,900  Level Chicago Center
Fri 05:34:51 PM 42.9158 -87.1278 284° West 184 212 7,900  Level Chicago Center
Fri 05:35:54 PM 42.9369 -87.1908 295° West 182 209 7,900  Level Chicago Center
Fri 05:36:56 PM 42.9581 -87.2539 295° West 184 212 7,900 48 Level Chicago Center
Fri 05:37:58 PM 42.9756 -87.3189 290° West 182 209 8,000 48 Climbing Chicago Center
Fri 05:39:00 PM 42.9978 -87.3869 294° West 185 213 8,000 48 Level Chicago Center
Fri 05:40:02 PM 43.0083 -87.4553 282° West 184 212 8,100 48 Climbing Chicago Center
Fri 05:41:04 PM 43.0200 -87.5367 281° West 187 215 8,100  Level Chicago Center
Fri 05:42:06 PM 43.0319 -87.6078 283° West 192 221 8,100  Level Chicago Center
Fri 05:43:08 PM 43.0408 -87.6786 280° West 190 219 8,100  Level Chicago Center
Fri 05:44:10 PM 43.0497 -87.7486 280° West 187 215 8,100  Level Chicago Center
Fri 05:45:12 PM 43.0617 -87.8189 283° West 191 220 8,100 -53 Level Chicago Center
Fri 05:46:03 PM 43.0667 -87.8833 276° West 187 215 8,000 -154 Descending KMKE
Fri 05:47:09 PM 43.0833 -87.9667 285° West 191 220 7,800 -429 Descending KMKE
Fri 05:48:09 PM 43.0833 -88.0333 270° West 205 236 7,100 -700 Descending KMKE
Fri 05:49:09 PM 43.1000 -88.1167 285° West 202 232 6,400 -600 Descending KMKE
Fri 05:50:09 PM 43.1167 -88.1833 289° West 192 221 5,900 -762 Descending KMKE
Fri 05:51:15 PM 43.1167 -88.2667 270° West 196 226 4,800 -870 Descending KMKE
Fri 05:52:27 PM 43.1308 -88.3547 282° West 194 223 3,900 -806 Descending Chicago Center
Fri 05:53:29 PM 43.1375 -88.4314 277° West 197 227 3,000 -581 Descending Chicago Center
Fri 05:54:31 PM 43.1403 -88.5044 273° West 196 226 2,700 -290 Descending Chicago Center
Fri 05:55:33 PM 43.1556 -88.5664 289° West 182 209 2,400 -290 Descending Chicago Center
Fri 05:56:35 PM 43.1703 -88.6225 290° West 165 190 2,100 -387 Descending Chicago Center
Fri 05:57:37 PM 43.1719 -88.6850 272° West 164 189 1,600 -144 Descending Chicago Center
Fri 05:58:40 PM 43.1372 -88.7300 223° Southwest 148 170 1,800 -142 Climbing Chicago Center
Fri 05:59:44 PM 43.1531 -88.7550 311° West 124 143 1,300 -476 Descending Chicago Center
Fri 06:00:46 PM 43.1656 -88.7250 60° Northeast 116 133 800 -484 Descending Chicago Center

Login

Don't have an account? Register now (free) for customized features, flight alerts, and more!